createdAt,value
2022-10-07T00:02:18.020Z,61.70
2022-10-07T00:04:46.556Z,56.08
2022-10-07T00:07:15.386Z,55.90
2022-10-07T00:09:42.387Z,56.42
2022-10-07T00:12:09.190Z,49.72
2022-10-07T00:14:42.052Z,52.50
2022-10-07T00:17:08.948Z,48.60
2022-10-07T00:19:37.111Z,45.88
2022-10-07T00:22:05.259Z,40.72
2022-10-07T00:24:32.192Z,43.83
2022-10-07T00:26:59.069Z,41.85
2022-10-07T00:29:28.028Z,40.17
2022-10-07T00:32:08.116Z,42.88
2022-10-07T00:35:15.211Z,42.53
2022-10-07T00:38:08.750Z,52.10
2022-10-07T00:41:09.083Z,43.50
2022-10-07T00:43:44.080Z,46.53
2022-10-07T00:47:06.301Z,48.38
2022-10-07T00:50:15.922Z,48.55
2022-10-07T00:56:08.029Z,47.80
2022-10-07T00:58:58.142Z,51.00
2022-10-07T01:01:56.813Z,55.83
2022-10-07T01:04:38.603Z,52.63
2022-10-07T01:07:22.678Z,62.10
2022-10-07T01:09:55.357Z,75.93
2022-10-07T01:12:38.157Z,58.13
2022-10-07T01:15:25.152Z,70.72
2022-10-07T01:18:55.362Z,62.92
2022-10-07T01:22:27.298Z,55.53
2022-10-07T01:25:54.977Z,50.33
2022-10-07T01:28:53.439Z,49.47
2022-10-07T01:31:48.444Z,57.90
2022-10-07T01:40:21.887Z,43.00
2022-10-07T01:43:03.694Z,49.30
2022-10-07T01:48:55.311Z,46.00
2022-10-07T01:51:35.855Z,42.55
2022-10-07T01:57:49.514Z,53.13
2022-10-07T02:00:37.888Z,31.05
2022-10-07T02:03:24.653Z,33.33
2022-10-07T02:05:58.018Z,30.83
2022-10-07T02:11:40.314Z,36.20
2022-10-07T02:17:47.746Z,41.08
2022-10-07T02:20:35.214Z,39.63
2022-10-07T02:23:34.810Z,39.83
2022-10-07T02:26:11.052Z,37.85
2022-10-07T02:29:01.621Z,36.10
2022-10-07T02:31:54.313Z,37.20
2022-10-07T02:34:28.617Z,35.75
2022-10-07T02:37:38.208Z,40.63
2022-10-07T02:43:30.962Z,41.70
2022-10-07T02:46:35.059Z,34.80
2022-10-07T02:49:37.876Z,30.63
2022-10-07T02:52:14.158Z,27.52
2022-10-07T02:55:08.255Z,31.63
2022-10-07T02:58:25.011Z,28.98
2022-10-07T03:01:34.039Z,25.75
2022-10-07T03:04:24.099Z,28.20
2022-10-07T03:07:14.189Z,27.15
2022-10-07T03:09:52.605Z,31.95
2022-10-07T03:12:42.334Z,28.67
2022-10-07T03:15:16.119Z,36.30
2022-10-07T03:17:47.366Z,39.65
2022-10-07T03:20:28.064Z,36.20
2022-10-07T03:23:20.494Z,33.55
2022-10-07T03:26:06.837Z,28.48
2022-10-07T03:28:46.328Z,33.67
2022-10-07T03:31:22.469Z,31.75
2022-10-07T03:34:06.004Z,31.13
2022-10-07T03:36:46.972Z,31.13
2022-10-07T03:39:20.155Z,31.15
2022-10-07T03:42:06.599Z,32.65
2022-10-07T03:44:38.915Z,26.77
2022-10-07T03:47:22.398Z,27.23
2022-10-07T03:50:17.750Z,24.63
2022-10-07T03:53:12.622Z,25.85
2022-10-07T03:55:54.791Z,22.60
2022-10-07T03:58:25.009Z,21.30
2022-10-07T04:01:24.994Z,23.83
2022-10-07T04:04:12.129Z,20.40
2022-10-07T04:06:58.188Z,22.20
2022-10-07T04:15:27.400Z,19.63
2022-10-07T04:18:00.005Z,21.25
2022-10-07T04:20:37.992Z,20.80
2022-10-07T04:23:18.495Z,20.42
2022-10-07T04:25:53.674Z,18.60
2022-10-07T04:28:40.849Z,20.27
2022-10-07T04:31:34.109Z,23.27
2022-10-07T04:34:07.845Z,30.13
2022-10-07T04:36:42.877Z,29.08
2022-10-07T04:39:19.695Z,25.77
2022-10-07T04:41:51.468Z,25.20
2022-10-07T04:44:51.637Z,25.73
2022-10-07T04:50:31.187Z,23.20
2022-10-07T04:59:04.937Z,20.33
2022-10-07T05:01:48.788Z,19.65
2022-10-07T05:04:21.926Z,20.25
2022-10-07T05:07:02.290Z,20.05
2022-10-07T05:09:51.162Z,23.83
2022-10-07T05:12:45.156Z,22.13
2022-10-07T05:15:18.083Z,20.23
2022-10-07T05:18:01.235Z,19.27
2022-10-07T05:20:49.589Z,22.55
2022-10-07T05:23:28.386Z,24.48
2022-10-07T05:26:04.685Z,21.15
2022-10-07T05:28:34.830Z,25.08
2022-10-07T05:31:11.892Z,28.60
2022-10-07T05:33:38.961Z,22.88
2022-10-07T05:36:08.384Z,23.30
2022-10-07T05:38:36.969Z,27.10
2022-10-07T05:41:06.460Z,30.42
2022-10-07T05:43:39.800Z,31.35
2022-10-07T05:46:11.866Z,31.02
2022-10-07T05:48:39.718Z,26.00
2022-10-07T05:51:08.451Z,26.98
2022-10-07T05:53:36.170Z,27.80
2022-10-07T05:56:14.113Z,25.20
2022-10-07T05:58:41.017Z,25.77
2022-10-07T06:01:17.861Z,26.83
2022-10-07T06:03:50.397Z,23.83
2022-10-07T06:06:17.814Z,23.50
2022-10-07T06:08:44.682Z,26.88
2022-10-07T06:11:32.300Z,28.25
2022-10-07T06:13:59.586Z,24.10
2022-10-07T06:16:28.160Z,22.70
2022-10-07T06:18:55.858Z,27.42
2022-10-07T06:21:28.489Z,22.40
2022-10-07T06:23:56.788Z,23.05
2022-10-07T06:26:23.816Z,33.13
2022-10-07T06:28:51.059Z,27.65
2022-10-07T06:31:22.328Z,24.60
2022-10-07T06:33:50.029Z,26.60
2022-10-07T06:36:19.171Z,23.02
2022-10-07T06:38:48.125Z,22.50
2022-10-07T06:41:15.961Z,21.63
2022-10-07T06:43:43.219Z,23.33
2022-10-07T06:46:14.549Z,22.40
2022-10-07T06:48:44.510Z,23.05
2022-10-07T06:51:23.300Z,27.60
2022-10-07T06:54:20.533Z,25.52
2022-10-07T06:59:48.334Z,30.48
2022-10-07T07:02:40.796Z,22.45
2022-10-07T07:05:25.367Z,21.00
2022-10-07T07:08:03.270Z,23.70
2022-10-07T07:10:43.309Z,21.73
2022-10-07T07:13:40.299Z,23.77
2022-10-07T07:16:22.225Z,31.27
2022-10-07T07:19:12.843Z,28.13
2022-10-07T07:24:56.315Z,23.73
2022-10-07T07:30:20.260Z,23.08
2022-10-07T07:32:55.160Z,24.10
2022-10-07T07:35:51.170Z,25.67
2022-10-07T07:41:57.653Z,21.67
2022-10-07T07:44:24.396Z,24.23
2022-10-07T07:46:52.257Z,21.15
2022-10-07T07:50:07.538Z,19.30
2022-10-07T07:52:37.760Z,20.30
2022-10-07T07:55:04.812Z,22.65
2022-10-07T07:57:31.558Z,22.95
2022-10-07T08:00:00.821Z,22.23
2022-10-07T08:02:31.318Z,18.48
2022-10-07T08:05:01.962Z,19.45
2022-10-07T08:07:30.746Z,17.17
2022-10-07T08:10:03.228Z,23.00
2022-10-07T08:12:37.142Z,17.85
2022-10-07T08:15:15.389Z,18.40
2022-10-07T08:17:54.548Z,14.40
2022-10-07T08:20:24.904Z,21.85
2022-10-07T08:25:28.897Z,17.23
2022-10-07T08:27:57.138Z,19.33
2022-10-07T08:30:26.350Z,17.48
2022-10-07T08:33:04.886Z,16.60
2022-10-07T08:35:31.546Z,14.75
2022-10-07T08:37:58.299Z,14.88
2022-10-07T08:40:25.053Z,19.73
2022-10-07T08:42:55.369Z,15.90
2022-10-07T08:48:03.140Z,16.20
2022-10-07T08:50:45.348Z,16.23
2022-10-07T08:53:32.483Z,19.33
2022-10-07T08:56:18.318Z,16.77
2022-10-07T08:59:14.617Z,18.52
2022-10-07T09:01:53.641Z,19.05
2022-10-07T09:04:44.989Z,17.42
2022-10-07T09:07:31.715Z,16.63
2022-10-07T09:10:05.449Z,20.52
2022-10-07T09:12:52.497Z,15.88
2022-10-07T09:15:35.857Z,12.40
2022-10-07T09:18:11.120Z,17.33
2022-10-07T09:20:43.570Z,18.15
2022-10-07T09:23:15.582Z,18.80
2022-10-07T09:25:43.683Z,15.70
2022-10-07T09:28:16.445Z,15.52
2022-10-07T09:30:44.131Z,13.20
2022-10-07T09:33:18.638Z,13.88
2022-10-07T09:36:06.453Z,16.30
2022-10-07T09:38:53.891Z,13.07
2022-10-07T09:41:32.017Z,11.48
2022-10-07T09:44:00.377Z,13.23
2022-10-07T09:46:47.674Z,9.23
2022-10-07T09:49:41.969Z,10.35
2022-10-07T09:52:18.456Z,16.63
2022-10-07T09:54:48.008Z,12.85
2022-10-07T09:57:35.356Z,7.25
2022-10-07T10:00:14.075Z,12.57
2022-10-07T10:02:47.246Z,7.93
2022-10-07T10:05:35.164Z,12.65
2022-10-07T10:08:27.571Z,10.15
2022-10-07T10:11:01.465Z,10.45
2022-10-07T10:13:37.731Z,9.27
2022-10-07T10:16:26.772Z,9.35
2022-10-07T10:18:55.903Z,11.70
2022-10-07T10:21:30.354Z,9.43
2022-10-07T10:24:05.949Z,12.90
2022-10-07T10:26:57.642Z,11.55
2022-10-07T10:29:42.333Z,8.55
2022-10-07T10:32:53.992Z,11.18
2022-10-07T10:35:31.969Z,11.55
2022-10-07T10:38:25.474Z,11.38
2022-10-07T10:41:00.824Z,12.60
2022-10-07T10:43:48.480Z,12.38
2022-10-07T10:46:34.159Z,8.43
2022-10-07T10:49:19.955Z,9.95
2022-10-07T10:52:18.077Z,11.93
2022-10-07T10:55:03.642Z,10.27
2022-10-07T10:57:45.360Z,9.10
2022-10-07T11:00:15.815Z,13.82
2022-10-07T11:03:16.060Z,10.40
2022-10-07T11:08:38.586Z,10.43
2022-10-07T11:11:16.911Z,14.20
2022-10-07T11:13:58.362Z,11.23
2022-10-07T11:16:45.216Z,9.80
2022-10-07T11:19:32.142Z,8.25
2022-10-07T11:22:00.541Z,10.95
2022-10-07T11:24:39.370Z,8.77
2022-10-07T11:27:23.086Z,8.48
2022-10-07T11:30:20.041Z,8.90
2022-10-07T11:33:00.736Z,9.20
2022-10-07T11:35:59.302Z,9.40
2022-10-07T11:38:33.658Z,8.77
2022-10-07T11:41:03.097Z,11.80
2022-10-07T11:43:44.670Z,9.80
2022-10-07T11:46:30.006Z,8.68
2022-10-07T11:49:08.745Z,10.80
2022-10-07T11:51:52.509Z,10.30
2022-10-07T11:54:23.383Z,10.95
2022-10-07T11:56:52.794Z,5.45
2022-10-07T11:59:50.148Z,11.63
2022-10-07T12:02:48.847Z,17.40
2022-10-07T12:05:33.908Z,10.10
2022-10-07T12:08:11.153Z,7.50
2022-10-07T12:10:38.041Z,10.88
2022-10-07T12:13:10.769Z,10.07
2022-10-07T12:15:42.810Z,10.38
2022-10-07T12:18:10.455Z,7.65
2022-10-07T12:20:55.547Z,11.88
2022-10-07T12:23:22.312Z,6.90
2022-10-07T12:26:00.861Z,6.22
2022-10-07T12:28:42.544Z,12.27
2022-10-07T12:31:15.532Z,12.57
2022-10-07T12:33:45.372Z,9.07
2022-10-07T12:36:23.931Z,8.77
2022-10-07T12:38:57.414Z,9.70
2022-10-07T12:41:30.761Z,8.43
2022-10-07T12:44:06.542Z,10.25
2022-10-07T12:46:38.180Z,7.55
2022-10-07T12:49:16.082Z,9.25
2022-10-07T12:51:44.488Z,7.60
2022-10-07T12:54:34.061Z,9.50
2022-10-07T12:57:02.703Z,12.45
2022-10-07T12:59:47.826Z,9.77
2022-10-07T13:02:36.330Z,9.05
2022-10-07T13:05:21.300Z,8.50
2022-10-07T13:08:22.003Z,7.00
2022-10-07T13:11:26.400Z,7.47
2022-10-07T13:14:09.931Z,9.63
2022-10-07T13:17:00.260Z,9.65
2022-10-07T13:19:45.255Z,8.88
2022-10-07T13:22:11.932Z,8.45
2022-10-07T13:24:42.501Z,6.93
2022-10-07T13:27:12.541Z,10.13
2022-10-07T13:29:39.411Z,8.65
2022-10-07T13:32:16.465Z,7.85
2022-10-07T13:34:47.945Z,8.60
2022-10-07T13:37:35.499Z,9.55
2022-10-07T13:40:30.539Z,7.13
2022-10-07T13:43:00.898Z,10.23
2022-10-07T13:45:28.837Z,8.20
2022-10-07T13:47:57.660Z,9.55
2022-10-07T13:50:29.147Z,10.93
2022-10-07T13:52:57.099Z,12.75
2022-10-07T13:55:30.036Z,12.82
2022-10-07T13:58:00.629Z,12.15
2022-10-07T14:00:28.818Z,12.55
2022-10-07T14:02:55.813Z,11.95
2022-10-07T14:05:28.447Z,8.40
2022-10-07T14:07:59.967Z,9.77
2022-10-07T14:10:29.347Z,15.45
2022-10-07T14:13:03.385Z,15.75
2022-10-07T14:15:31.883Z,11.82
2022-10-07T14:18:04.566Z,10.80
2022-10-07T14:20:40.994Z,13.68
2022-10-07T14:23:31.390Z,13.02
2022-10-07T14:26:11.115Z,11.73
2022-10-07T14:28:39.637Z,11.88
2022-10-07T14:31:25.377Z,12.82
2022-10-07T14:34:22.700Z,11.88
2022-10-07T14:37:12.246Z,12.77
2022-10-07T14:39:45.198Z,13.65
2022-10-07T14:42:22.818Z,10.73
2022-10-07T14:44:51.830Z,13.77
2022-10-07T14:47:21.190Z,10.93
2022-10-07T14:49:48.784Z,14.35
2022-10-07T14:52:23.661Z,12.70
2022-10-07T14:54:52.769Z,13.43
2022-10-07T14:57:20.838Z,11.05
2022-10-07T14:59:49.744Z,9.48
2022-10-07T15:02:16.510Z,9.50
2022-10-07T15:04:45.493Z,16.17
2022-10-07T15:07:13.943Z,14.35
2022-10-07T15:09:42.461Z,16.33
2022-10-07T15:12:14.430Z,14.90
2022-10-07T15:14:41.757Z,19.15
2022-10-07T15:17:12.143Z,18.92
2022-10-07T15:19:39.323Z,22.67
2022-10-07T15:22:07.297Z,18.80
2022-10-07T15:24:34.665Z,16.35
2022-10-07T15:27:01.422Z,26.55
2022-10-07T15:29:28.368Z,71.75
2022-10-07T15:31:56.394Z,55.75
2022-10-07T15:34:25.870Z,60.63
2022-10-07T15:36:55.211Z,38.15
2022-10-07T15:39:21.954Z,45.50
2022-10-07T15:41:50.711Z,32.33
2022-10-07T15:44:20.236Z,36.00
2022-10-07T15:46:48.794Z,37.63
2022-10-07T15:49:18.849Z,36.53
2022-10-07T15:51:46.832Z,48.88
2022-10-07T15:54:14.274Z,48.58
2022-10-07T15:56:45.635Z,45.92
2022-10-07T15:59:12.454Z,33.70
2022-10-07T16:01:39.199Z,35.85
2022-10-07T16:04:12.178Z,39.47
2022-10-07T16:06:39.323Z,41.25
2022-10-07T16:09:08.836Z,31.58
2022-10-07T16:11:35.613Z,38.35
2022-10-07T16:14:03.058Z,33.15
2022-10-07T16:16:31.458Z,30.48
2022-10-07T16:19:02.269Z,36.05
2022-10-07T16:21:32.078Z,35.60
2022-10-07T16:24:13.350Z,35.03
2022-10-07T16:26:40.392Z,30.67
2022-10-07T16:29:33.537Z,38.38
2022-10-07T16:32:00.606Z,37.53
2022-10-07T16:34:28.847Z,32.65
2022-10-07T16:36:57.062Z,33.83
2022-10-07T16:39:25.494Z,33.30
2022-10-07T16:41:54.394Z,33.53
2022-10-07T16:44:23.696Z,34.15
2022-10-07T16:46:56.833Z,29.90
2022-10-07T16:49:26.026Z,32.13
2022-10-07T16:51:53.212Z,30.55
2022-10-07T16:54:20.737Z,31.95
2022-10-07T16:56:52.613Z,37.10
2022-10-07T16:59:25.168Z,35.60
2022-10-07T17:01:56.787Z,45.85
2022-10-07T17:04:25.085Z,43.65
2022-10-07T17:06:52.541Z,54.03
2022-10-07T17:09:19.546Z,55.28
2022-10-07T17:11:46.523Z,59.42
2022-10-07T17:14:16.739Z,58.70
2022-10-07T17:16:48.918Z,65.82
2022-10-07T17:19:20.831Z,62.15
2022-10-07T17:21:49.115Z,73.72
2022-10-07T17:24:17.369Z,71.35
2022-10-07T17:26:45.444Z,74.13
2022-10-07T17:29:14.561Z,71.63
2022-10-07T17:31:43.612Z,69.82
2022-10-07T17:34:11.845Z,65.47
2022-10-07T17:36:39.911Z,65.10
2022-10-07T17:39:07.426Z,62.58
2022-10-07T17:41:37.157Z,67.63
2022-10-07T17:44:09.450Z,57.97
2022-10-07T17:46:39.824Z,61.92
2022-10-07T17:49:08.865Z,53.58
2022-10-07T17:51:37.579Z,53.50
2022-10-07T17:54:06.462Z,58.45
2022-10-07T17:56:35.059Z,60.47
2022-10-07T17:59:02.941Z,56.38
2022-10-07T18:01:34.178Z,60.20
2022-10-07T18:04:05.148Z,60.22
2022-10-07T18:06:36.756Z,58.50
2022-10-07T18:09:09.330Z,56.88
2022-10-07T18:11:55.137Z,60.65
2022-10-07T18:14:41.000Z,66.30
2022-10-07T18:17:09.972Z,61.65
2022-10-07T18:19:38.748Z,65.32
2022-10-07T18:22:05.924Z,58.63
2022-10-07T18:24:32.998Z,65.18
2022-10-07T18:27:01.264Z,58.08
2022-10-07T18:29:33.900Z,61.92
2022-10-07T18:32:01.473Z,61.38
2022-10-07T18:34:28.519Z,59.10
2022-10-07T18:36:57.205Z,59.78
2022-10-07T18:39:29.835Z,62.10
2022-10-07T18:41:58.399Z,58.00
2022-10-07T18:44:25.673Z,61.22
2022-10-07T18:46:54.239Z,60.33
2022-10-07T18:49:21.076Z,57.13
2022-10-07T18:51:52.140Z,59.92
2022-10-07T18:54:22.583Z,52.63
2022-10-07T18:59:19.388Z,60.90
2022-10-07T19:01:50.831Z,58.20
2022-10-07T19:04:18.502Z,55.05
2022-10-07T19:06:47.603Z,47.17
2022-10-07T19:09:23.210Z,57.30
2022-10-07T19:11:51.496Z,50.42
2022-10-07T19:14:18.448Z,53.65
2022-10-07T19:16:51.761Z,58.10
2022-10-07T19:19:28.006Z,54.38
2022-10-07T19:21:56.183Z,55.03
2022-10-07T19:24:46.101Z,51.15
2022-10-07T19:27:13.296Z,52.60
2022-10-07T19:29:42.849Z,56.08
2022-10-07T19:32:15.546Z,53.08
2022-10-07T19:34:43.495Z,58.10
2022-10-07T19:37:13.219Z,55.55
2022-10-07T19:39:40.416Z,55.90
2022-10-07T19:42:08.908Z,53.85
2022-10-07T19:44:39.726Z,53.47
2022-10-07T19:47:06.502Z,54.10
2022-10-07T19:49:34.771Z,55.38
2022-10-07T19:52:01.834Z,57.25
2022-10-07T19:54:36.012Z,52.05
2022-10-07T19:57:04.642Z,59.28
2022-10-07T19:59:42.481Z,52.90
2022-10-07T20:02:10.816Z,50.47
2022-10-07T20:04:37.779Z,52.13
2022-10-07T20:07:04.719Z,52.28
2022-10-07T20:09:35.804Z,48.13
2022-10-07T20:12:04.044Z,51.03
2022-10-07T20:14:32.824Z,56.58
2022-10-07T20:16:59.762Z,51.45
2022-10-07T20:19:27.401Z,54.90
2022-10-07T20:21:55.743Z,52.75
2022-10-07T20:24:24.515Z,52.83
2022-10-07T20:26:51.346Z,55.88
2022-10-07T20:29:24.711Z,44.58
2022-10-07T20:31:52.543Z,49.92
2022-10-07T20:34:20.328Z,45.38
2022-10-07T20:36:50.445Z,47.42
2022-10-07T20:39:38.357Z,45.38
2022-10-07T20:42:22.332Z,46.72
2022-10-07T20:44:50.425Z,48.33
2022-10-07T20:47:18.789Z,46.80
2022-10-07T20:49:48.385Z,45.65
2022-10-07T20:52:22.698Z,48.20
2022-10-07T20:54:53.548Z,43.50
2022-10-07T20:57:22.950Z,43.15
2022-10-07T20:59:50.610Z,43.20
2022-10-07T21:02:19.710Z,40.50
2022-10-07T21:04:49.746Z,44.08
2022-10-07T21:07:18.132Z,40.65
2022-10-07T21:09:46.121Z,40.72
2022-10-07T21:12:15.802Z,42.40
2022-10-07T21:14:44.376Z,40.38
2022-10-07T21:17:12.222Z,41.67
2022-10-07T21:19:39.334Z,40.17
2022-10-07T21:22:06.759Z,38.00
2022-10-07T21:24:39.580Z,38.15
2022-10-07T21:27:07.596Z,40.25
2022-10-07T21:29:40.158Z,41.28
2022-10-07T21:32:08.441Z,38.67
2022-10-07T21:34:35.205Z,38.72
2022-10-07T21:37:02.740Z,38.63
2022-10-07T21:39:29.443Z,35.72
2022-10-07T21:41:57.988Z,36.72
2022-10-07T21:44:25.497Z,36.42
2022-10-07T21:46:54.199Z,36.42
2022-10-07T21:49:58.863Z,36.10
2022-10-07T21:52:29.487Z,41.00
2022-10-07T21:55:27.001Z,38.25
2022-10-07T21:58:24.479Z,38.67
2022-10-07T22:01:23.229Z,46.22
2022-10-07T22:04:58.709Z,42.17
2022-10-07T22:07:52.920Z,38.40
2022-10-07T23:15:48.222Z,35.97
2022-10-07T23:20:04.064Z,33.28
